Aviation Digital Data Service (ADDS)

Output produced by TAFs form (0146 UTC 22 November 2017)
found at http://www.aviationweather.gov/adds/tafs/
 
METAR text: ROYN 220100Z AUTO 33023KT 9999 BKN017 BKN029 OVC031 25/22 Q1015
Conditions at: ROYN (YONAGUNI AIRPORT, JP) observed 0100 UTC 22 November 2017
Temperature: 25.0°C (77°F)
Dewpoint: 22.0°C (72°F) [RH = 83%]
Pressure (altimeter): 29.97 inches Hg (1015.0 mb)
Winds: from the NNW (330 degrees) at 26 MPH (23 knots; 12.0 m/s)
Visibility: 6 or more miles (10+ km)
Ceiling: 1700 feet AGL
Clouds: broken clouds at 1700 feet AGL
broken clouds at 2900 feet AGL
overcast cloud deck at 3100 feet AGL
Weather: no significant weather observed at this time